sensor_id;sensor_type;location;lat;lon;timestamp;P1;durP1;ratioP1;P2;durP2;ratioP2
6015;SDS011;3036;49.960;8.454;2022-11-20T00:01:22;6.43;;;4.13;;
6015;SDS011;3036;49.960;8.454;2022-11-20T00:03:50;7.97;;;3.77;;
6015;SDS011;3036;49.960;8.454;2022-11-20T00:06:18;8.47;;;4.47;;
6015;SDS011;3036;49.960;8.454;2022-11-20T00:08:47;7.37;;;5.80;;
6015;SDS011;3036;49.960;8.454;2022-11-20T00:11:15;5.87;;;3.93;;
6015;SDS011;3036;49.960;8.454;2022-11-20T00:13:42;4.60;;;3.43;;
6015;SDS011;3036;49.960;8.454;2022-11-20T00:16:10;6.80;;;3.83;;
6015;SDS011;3036;49.960;8.454;2022-11-20T00:18:38;6.20;;;4.40;;
6015;SDS011;3036;49.960;8.454;2022-11-20T00:21:07;2.33;;;2.20;;
6015;SDS011;3036;49.960;8.454;2022-11-20T00:23:36;7.83;;;5.27;;
6015;SDS011;3036;49.960;8.454;2022-11-20T00:26:05;9.10;;;4.93;;
6015;SDS011;3036;49.960;8.454;2022-11-20T00:28:32;5.33;;;3.47;;
6015;SDS011;3036;49.960;8.454;2022-11-20T00:31:00;4.73;;;4.23;;
6015;SDS011;3036;49.960;8.454;2022-11-20T00:33:27;6.53;;;4.23;;
6015;SDS011;3036;49.960;8.454;2022-11-20T00:35:58;6.10;;;4.17;;
6015;SDS011;3036;49.960;8.454;2022-11-20T00:38:25;7.67;;;4.77;;
6015;SDS011;3036;49.960;8.454;2022-11-20T00:40:54;7.33;;;4.67;;
6015;SDS011;3036;49.960;8.454;2022-11-20T00:43:22;8.87;;;5.37;;
6015;SDS011;3036;49.960;8.454;2022-11-20T00:45:49;8.10;;;4.70;;
6015;SDS011;3036;49.960;8.454;2022-11-20T00:48:16;13.43;;;5.30;;
6015;SDS011;3036;49.960;8.454;2022-11-20T00:50:43;5.77;;;3.67;;
6015;SDS011;3036;49.960;8.454;2022-11-20T00:53:10;9.13;;;4.37;;
6015;SDS011;3036;49.960;8.454;2022-11-20T00:55:38;7.63;;;4.20;;
6015;SDS011;3036;49.960;8.454;2022-11-20T00:58:05;4.47;;;3.23;;
6015;SDS011;3036;49.960;8.454;2022-11-20T01:00:33;3.80;;;3.37;;
6015;SDS011;3036;49.960;8.454;2022-11-20T01:03:00;4.90;;;3.83;;
6015;SDS011;3036;49.960;8.454;2022-11-20T01:05:28;7.17;;;4.97;;
6015;SDS011;3036;49.960;8.454;2022-11-20T01:07:55;3.63;;;3.13;;
6015;SDS011;3036;49.960;8.454;2022-11-20T01:10:22;6.80;;;3.90;;
6015;SDS011;3036;49.960;8.454;2022-11-20T01:12:49;9.00;;;4.73;;
6015;SDS011;3036;49.960;8.454;2022-11-20T01:15:37;5.10;;;3.80;;
6015;SDS011;3036;49.960;8.454;2022-11-20T01:18:04;6.77;;;4.43;;
6015;SDS011;3036;49.960;8.454;2022-11-20T01:20:33;7.80;;;4.37;;
6015;SDS011;3036;49.960;8.454;2022-11-20T01:23:01;5.23;;;3.73;;
6015;SDS011;3036;49.960;8.454;2022-11-20T01:25:28;7.47;;;5.13;;
6015;SDS011;3036;49.960;8.454;2022-11-20T01:27:55;7.17;;;5.17;;
6015;SDS011;3036;49.960;8.454;2022-11-20T01:30:22;7.73;;;4.37;;
6015;SDS011;3036;49.960;8.454;2022-11-20T01:32:51;6.50;;;3.47;;
6015;SDS011;3036;49.960;8.454;2022-11-20T01:35:18;8.67;;;4.20;;
6015;SDS011;3036;49.960;8.454;2022-11-20T01:37:45;9.10;;;5.03;;
6015;SDS011;3036;49.960;8.454;2022-11-20T01:40:12;9.87;;;5.40;;
6015;SDS011;3036;49.960;8.454;2022-11-20T01:42:43;3.13;;;2.93;;
6015;SDS011;3036;49.960;8.454;2022-11-20T01:45:53;4.70;;;2.50;;
6015;SDS011;3036;49.960;8.454;2022-11-20T01:48:25;8.83;;;4.50;;
6015;SDS011;3036;49.960;8.454;2022-11-20T01:50:53;7.93;;;4.83;;
6015;SDS011;3036;49.960;8.454;2022-11-20T01:53:21;4.50;;;4.10;;
6015;SDS011;3036;49.960;8.454;2022-11-20T01:55:51;4.60;;;3.03;;
6015;SDS011;3036;49.960;8.454;2022-11-20T01:58:20;10.93;;;5.50;;
6015;SDS011;3036;49.960;8.454;2022-11-20T02:00:49;9.70;;;5.50;;
6015;SDS011;3036;49.960;8.454;2022-11-20T02:03:16;10.03;;;5.17;;
6015;SDS011;3036;49.960;8.454;2022-11-20T02:05:46;10.03;;;5.83;;
6015;SDS011;3036;49.960;8.454;2022-11-20T02:08:14;10.50;;;5.77;;
6015;SDS011;3036;49.960;8.454;2022-11-20T02:10:42;7.60;;;5.23;;
6015;SDS011;3036;49.960;8.454;2022-11-20T02:13:09;8.13;;;5.30;;
6015;SDS011;3036;49.960;8.454;2022-11-20T02:15:54;12.70;;;5.80;;
6015;SDS011;3036;49.960;8.454;2022-11-20T02:18:21;11.23;;;5.37;;
6015;SDS011;3036;49.960;8.454;2022-11-20T02:20:53;12.33;;;6.47;;
6015;SDS011;3036;49.960;8.454;2022-11-20T02:23:21;10.27;;;5.50;;
6015;SDS011;3036;49.960;8.454;2022-11-20T02:25:52;8.20;;;4.23;;
6015;SDS011;3036;49.960;8.454;2022-11-20T02:28:21;5.93;;;4.23;;
6015;SDS011;3036;49.960;8.454;2022-11-20T02:30:48;12.27;;;6.03;;
6015;SDS011;3036;49.960;8.454;2022-11-20T02:33:15;6.53;;;4.07;;
6015;SDS011;3036;49.960;8.454;2022-11-20T02:35:44;12.50;;;6.03;;
6015;SDS011;3036;49.960;8.454;2022-11-20T02:38:11;3.40;;;3.10;;
6015;SDS011;3036;49.960;8.454;2022-11-20T02:40:38;6.53;;;4.20;;
6015;SDS011;3036;49.960;8.454;2022-11-20T02:43:07;10.57;;;4.53;;
6015;SDS011;3036;49.960;8.454;2022-11-20T02:45:34;10.17;;;4.83;;
6015;SDS011;3036;49.960;8.454;2022-11-20T02:48:01;4.00;;;3.60;;
6015;SDS011;3036;49.960;8.454;2022-11-20T02:50:28;10.73;;;6.10;;
6015;SDS011;3036;49.960;8.454;2022-11-20T02:52:55;5.50;;;3.77;;
6015;SDS011;3036;49.960;8.454;2022-11-20T02:55:23;12.87;;;6.63;;
6015;SDS011;3036;49.960;8.454;2022-11-20T02:57:50;12.03;;;6.17;;
6015;SDS011;3036;49.960;8.454;2022-11-20T03:00:18;10.67;;;6.23;;
6015;SDS011;3036;49.960;8.454;2022-11-20T03:02:45;15.80;;;6.53;;
6015;SDS011;3036;49.960;8.454;2022-11-20T03:05:13;10.53;;;5.33;;
6015;SDS011;3036;49.960;8.454;2022-11-20T03:07:40;14.20;;;5.60;;
6015;SDS011;3036;49.960;8.454;2022-11-20T03:10:07;9.10;;;6.73;;
6015;SDS011;3036;49.960;8.454;2022-11-20T03:12:34;8.73;;;5.77;;
6015;SDS011;3036;49.960;8.454;2022-11-20T03:15:01;11.33;;;5.93;;
6015;SDS011;3036;49.960;8.454;2022-11-20T03:17:30;13.67;;;5.30;;
6015;SDS011;3036;49.960;8.454;2022-11-20T03:19:57;9.77;;;5.93;;
6015;SDS011;3036;49.960;8.454;2022-11-20T03:22:24;12.43;;;6.13;;
6015;SDS011;3036;49.960;8.454;2022-11-20T03:24:51;7.50;;;4.50;;
6015;SDS011;3036;49.960;8.454;2022-11-20T03:27:18;8.90;;;3.67;;
6015;SDS011;3036;49.960;8.454;2022-11-20T03:29:45;8.70;;;5.13;;
6015;SDS011;3036;49.960;8.454;2022-11-20T03:32:12;8.43;;;4.73;;
6015;SDS011;3036;49.960;8.454;2022-11-20T03:34:41;14.70;;;5.53;;
6015;SDS011;3036;49.960;8.454;2022-11-20T03:37:08;8.53;;;5.83;;
6015;SDS011;3036;49.960;8.454;2022-11-20T03:39:35;3.60;;;2.97;;
6015;SDS011;3036;49.960;8.454;2022-11-20T03:42:02;11.27;;;5.13;;
6015;SDS011;3036;49.960;8.454;2022-11-20T03:44:49;8.97;;;5.73;;
6015;SDS011;3036;49.960;8.454;2022-11-20T03:47:16;9.70;;;5.63;;
6015;SDS011;3036;49.960;8.454;2022-11-20T03:49:44;11.57;;;6.00;;
6015;SDS011;3036;49.960;8.454;2022-11-20T03:52:11;14.60;;;7.10;;
6015;SDS011;3036;49.960;8.454;2022-11-20T03:54:39;10.33;;;5.63;;
6015;SDS011;3036;49.960;8.454;2022-11-20T03:57:06;9.10;;;5.10;;
6015;SDS011;3036;49.960;8.454;2022-11-20T03:59:33;12.87;;;5.93;;
6015;SDS011;3036;49.960;8.454;2022-11-20T04:02:00;7.70;;;4.73;;
6015;SDS011;3036;49.960;8.454;2022-11-20T04:04:27;12.63;;;5.90;;
6015;SDS011;3036;49.960;8.454;2022-11-20T04:06:55;10.73;;;5.03;;
6015;SDS011;3036;49.960;8.454;2022-11-20T04:09:22;14.20;;;6.27;;
6015;SDS011;3036;49.960;8.454;2022-11-20T04:11:49;8.93;;;5.00;;
6015;SDS011;3036;49.960;8.454;2022-11-20T04:14:16;10.17;;;6.27;;
6015;SDS011;3036;49.960;8.454;2022-11-20T04:16:43;12.80;;;6.60;;
6015;SDS011;3036;49.960;8.454;2022-11-20T04:19:11;14.63;;;6.53;;
6015;SDS011;3036;49.960;8.454;2022-11-20T04:21:39;13.67;;;6.23;;
6015;SDS011;3036;49.960;8.454;2022-11-20T04:24:07;14.87;;;6.07;;
6015;SDS011;3036;49.960;8.454;2022-11-20T04:26:35;8.43;;;5.53;;
6015;SDS011;3036;49.960;8.454;2022-11-20T04:29:02;14.00;;;6.73;;
6015;SDS011;3036;49.960;8.454;2022-11-20T04:31:31;13.37;;;5.97;;
6015;SDS011;3036;49.960;8.454;2022-11-20T04:33:58;8.97;;;4.93;;
6015;SDS011;3036;49.960;8.454;2022-11-20T04:36:26;10.53;;;5.83;;
6015;SDS011;3036;49.960;8.454;2022-11-20T04:38:54;8.87;;;5.57;;
6015;SDS011;3036;49.960;8.454;2022-11-20T04:41:23;9.70;;;5.07;;
6015;SDS011;3036;49.960;8.454;2022-11-20T04:43:51;10.93;;;6.27;;
6015;SDS011;3036;49.960;8.454;2022-11-20T04:46:19;13.53;;;5.67;;
6015;SDS011;3036;49.960;8.454;2022-11-20T04:48:46;13.27;;;5.80;;
6015;SDS011;3036;49.960;8.454;2022-11-20T04:51:14;13.30;;;7.03;;
6015;SDS011;3036;49.960;8.454;2022-11-20T04:53:41;11.97;;;5.53;;
6015;SDS011;3036;49.960;8.454;2022-11-20T04:56:09;9.87;;;5.20;;
6015;SDS011;3036;49.960;8.454;2022-11-20T04:58:38;15.33;;;5.87;;
6015;SDS011;3036;49.960;8.454;2022-11-20T05:01:06;12.20;;;6.87;;
6015;SDS011;3036;49.960;8.454;2022-11-20T05:03:33;15.63;;;7.57;;
6015;SDS011;3036;49.960;8.454;2022-11-20T05:06:01;12.37;;;6.53;;
6015;SDS011;3036;49.960;8.454;2022-11-20T05:08:28;11.63;;;5.70;;
6015;SDS011;3036;49.960;8.454;2022-11-20T05:10:59;9.93;;;5.40;;
6015;SDS011;3036;49.960;8.454;2022-11-20T05:13:26;8.03;;;5.67;;
6015;SDS011;3036;49.960;8.454;2022-11-20T05:15:54;13.53;;;5.87;;
6015;SDS011;3036;49.960;8.454;2022-11-20T05:18:21;11.90;;;5.60;;
6015;SDS011;3036;49.960;8.454;2022-11-20T05:20:54;9.13;;;5.37;;
6015;SDS011;3036;49.960;8.454;2022-11-20T05:23:21;15.23;;;6.67;;
6015;SDS011;3036;49.960;8.454;2022-11-20T05:25:48;16.00;;;6.50;;
6015;SDS011;3036;49.960;8.454;2022-11-20T05:28:18;11.53;;;5.83;;
6015;SDS011;3036;49.960;8.454;2022-11-20T05:30:45;14.30;;;5.53;;
6015;SDS011;3036;49.960;8.454;2022-11-20T05:33:13;12.10;;;6.20;;
6015;SDS011;3036;49.960;8.454;2022-11-20T05:35:41;12.83;;;6.17;;
6015;SDS011;3036;49.960;8.454;2022-11-20T05:38:08;9.27;;;5.73;;
6015;SDS011;3036;49.960;8.454;2022-11-20T05:40:35;14.67;;;7.03;;
6015;SDS011;3036;49.960;8.454;2022-11-20T05:43:02;10.83;;;6.13;;
6015;SDS011;3036;49.960;8.454;2022-11-20T05:45:29;12.73;;;5.97;;
6015;SDS011;3036;49.960;8.454;2022-11-20T05:47:57;15.03;;;7.23;;
6015;SDS011;3036;49.960;8.454;2022-11-20T05:50:26;14.77;;;6.30;;
6015;SDS011;3036;49.960;8.454;2022-11-20T05:52:53;11.27;;;6.30;;
6015;SDS011;3036;49.960;8.454;2022-11-20T05:55:20;12.50;;;6.33;;
6015;SDS011;3036;49.960;8.454;2022-11-20T05:57:47;19.07;;;6.23;;
6015;SDS011;3036;49.960;8.454;2022-11-20T06:00:15;18.50;;;6.20;;
6015;SDS011;3036;49.960;8.454;2022-11-20T06:02:42;16.17;;;6.80;;
6015;SDS011;3036;49.960;8.454;2022-11-20T06:05:09;11.57;;;5.77;;
6015;SDS011;3036;49.960;8.454;2022-11-20T06:07:37;6.63;;;4.03;;
6015;SDS011;3036;49.960;8.454;2022-11-20T06:10:05;15.10;;;6.07;;
6015;SDS011;3036;49.960;8.454;2022-11-20T06:12:32;10.27;;;5.67;;
6015;SDS011;3036;49.960;8.454;2022-11-20T06:14:59;8.73;;;5.33;;
6015;SDS011;3036;49.960;8.454;2022-11-20T06:17:26;16.17;;;6.73;;
6015;SDS011;3036;49.960;8.454;2022-11-20T06:19:53;16.80;;;7.63;;
6015;SDS011;3036;49.960;8.454;2022-11-20T06:22:20;12.40;;;5.97;;
6015;SDS011;3036;49.960;8.454;2022-11-20T06:24:48;12.63;;;6.33;;
6015;SDS011;3036;49.960;8.454;2022-11-20T06:27:16;15.50;;;6.33;;
6015;SDS011;3036;49.960;8.454;2022-11-20T06:29:43;13.67;;;5.13;;
6015;SDS011;3036;49.960;8.454;2022-11-20T06:32:10;13.93;;;6.47;;
6015;SDS011;3036;49.960;8.454;2022-11-20T06:34:37;17.97;;;6.93;;
6015;SDS011;3036;49.960;8.454;2022-11-20T06:37:04;11.37;;;6.50;;
6015;SDS011;3036;49.960;8.454;2022-11-20T06:39:31;15.63;;;6.23;;
6015;SDS011;3036;49.960;8.454;2022-11-20T06:42:00;9.77;;;5.37;;
6015;SDS011;3036;49.960;8.454;2022-11-20T06:44:27;9.43;;;5.30;;
6015;SDS011;3036;49.960;8.454;2022-11-20T06:46:54;16.20;;;5.50;;
6015;SDS011;3036;49.960;8.454;2022-11-20T06:49:21;13.63;;;6.83;;
6015;SDS011;3036;49.960;8.454;2022-11-20T06:51:48;18.60;;;5.83;;
6015;SDS011;3036;49.960;8.454;2022-11-20T06:54:15;11.90;;;4.77;;
6015;SDS011;3036;49.960;8.454;2022-11-20T06:56:42;17.97;;;6.40;;
6015;SDS011;3036;49.960;8.454;2022-11-20T06:59:14;12.40;;;5.60;;
6015;SDS011;3036;49.960;8.454;2022-11-20T07:01:41;15.40;;;6.37;;
6015;SDS011;3036;49.960;8.454;2022-11-20T07:04:08;19.63;;;6.20;;
6015;SDS011;3036;49.960;8.454;2022-11-20T07:06:35;11.40;;;6.33;;
6015;SDS011;3036;49.960;8.454;2022-11-20T07:09:03;16.60;;;6.60;;
6015;SDS011;3036;49.960;8.454;2022-11-20T07:11:30;15.87;;;5.83;;
6015;SDS011;3036;49.960;8.454;2022-11-20T07:13:57;14.10;;;6.33;;
6015;SDS011;3036;49.960;8.454;2022-11-20T07:16:25;10.53;;;5.73;;
6015;SDS011;3036;49.960;8.454;2022-11-20T07:18:52;11.80;;;5.67;;
6015;SDS011;3036;49.960;8.454;2022-11-20T07:21:19;13.50;;;6.27;;
6015;SDS011;3036;49.960;8.454;2022-11-20T07:23:46;12.80;;;5.87;;
6015;SDS011;3036;49.960;8.454;2022-11-20T07:26:13;16.10;;;6.33;;
6015;SDS011;3036;49.960;8.454;2022-11-20T07:28:43;9.90;;;5.47;;
6015;SDS011;3036;49.960;8.454;2022-11-20T07:31:10;15.93;;;7.33;;
6015;SDS011;3036;49.960;8.454;2022-11-20T07:33:39;15.27;;;6.47;;
6015;SDS011;3036;49.960;8.454;2022-11-20T07:36:06;10.60;;;5.50;;
6015;SDS011;3036;49.960;8.454;2022-11-20T07:38:33;13.80;;;6.13;;
6015;SDS011;3036;49.960;8.454;2022-11-20T07:41:00;11.00;;;5.53;;
6015;SDS011;3036;49.960;8.454;2022-11-20T07:43:27;12.20;;;6.33;;
6015;SDS011;3036;49.960;8.454;2022-11-20T07:45:55;13.27;;;6.57;;
6015;SDS011;3036;49.960;8.454;2022-11-20T07:48:22;14.93;;;5.83;;
6015;SDS011;3036;49.960;8.454;2022-11-20T07:50:52;11.63;;;6.33;;
6015;SDS011;3036;49.960;8.454;2022-11-20T07:53:19;9.23;;;5.10;;
6015;SDS011;3036;49.960;8.454;2022-11-20T07:55:46;12.90;;;6.03;;
6015;SDS011;3036;49.960;8.454;2022-11-20T07:58:14;14.33;;;6.23;;
6015;SDS011;3036;49.960;8.454;2022-11-20T08:00:41;11.37;;;6.03;;
6015;SDS011;3036;49.960;8.454;2022-11-20T08:03:08;15.13;;;5.97;;
6015;SDS011;3036;49.960;8.454;2022-11-20T08:05:35;15.10;;;6.67;;
6015;SDS011;3036;49.960;8.454;2022-11-20T08:08:04;11.03;;;6.37;;
6015;SDS011;3036;49.960;8.454;2022-11-20T08:10:31;18.77;;;8.30;;
6015;SDS011;3036;49.960;8.454;2022-11-20T08:12:59;13.67;;;6.47;;
6015;SDS011;3036;49.960;8.454;2022-11-20T08:15:47;9.13;;;5.00;;
6015;SDS011;3036;49.960;8.454;2022-11-20T08:18:15;14.43;;;6.60;;
6015;SDS011;3036;49.960;8.454;2022-11-20T08:20:42;16.17;;;6.27;;
6015;SDS011;3036;49.960;8.454;2022-11-20T08:23:11;12.03;;;5.73;;
6015;SDS011;3036;49.960;8.454;2022-11-20T08:25:38;11.53;;;6.07;;
6015;SDS011;3036;49.960;8.454;2022-11-20T08:28:06;11.50;;;5.97;;
6015;SDS011;3036;49.960;8.454;2022-11-20T08:30:34;16.43;;;6.63;;
6015;SDS011;3036;49.960;8.454;2022-11-20T08:33:01;13.57;;;6.90;;
6015;SDS011;3036;49.960;8.454;2022-11-20T08:35:32;13.67;;;6.03;;
6015;SDS011;3036;49.960;8.454;2022-11-20T08:37:59;17.07;;;7.20;;
6015;SDS011;3036;49.960;8.454;2022-11-20T08:40:28;14.70;;;7.77;;
6015;SDS011;3036;49.960;8.454;2022-11-20T08:42:55;11.40;;;6.67;;
6015;SDS011;3036;49.960;8.454;2022-11-20T08:45:22;11.87;;;6.80;;
6015;SDS011;3036;49.960;8.454;2022-11-20T08:47:49;15.37;;;7.07;;
6015;SDS011;3036;49.960;8.454;2022-11-20T08:50:16;13.30;;;6.70;;
6015;SDS011;3036;49.960;8.454;2022-11-20T08:52:43;13.20;;;6.67;;
6015;SDS011;3036;49.960;8.454;2022-11-20T08:55:11;10.30;;;6.53;;
6015;SDS011;3036;49.960;8.454;2022-11-20T08:57:39;17.53;;;7.13;;
6015;SDS011;3036;49.960;8.454;2022-11-20T09:00:07;14.33;;;6.67;;
6015;SDS011;3036;49.960;8.454;2022-11-20T09:02:34;13.57;;;6.23;;
6015;SDS011;3036;49.960;8.454;2022-11-20T09:05:02;11.17;;;6.13;;
6015;SDS011;3036;49.960;8.454;2022-11-20T09:07:29;14.17;;;7.07;;
6015;SDS011;3036;49.960;8.454;2022-11-20T09:09:56;14.27;;;6.97;;
6015;SDS011;3036;49.960;8.454;2022-11-20T09:12:23;15.37;;;6.97;;
6015;SDS011;3036;49.960;8.454;2022-11-20T09:14:52;13.73;;;6.97;;
6015;SDS011;3036;49.960;8.454;2022-11-20T09:17:19;13.70;;;6.60;;
6015;SDS011;3036;49.960;8.454;2022-11-20T09:19:46;11.20;;;6.17;;
6015;SDS011;3036;49.960;8.454;2022-11-20T09:22:13;12.13;;;6.60;;
6015;SDS011;3036;49.960;8.454;2022-11-20T09:24:40;15.63;;;7.63;;
6015;SDS011;3036;49.960;8.454;2022-11-20T09:27:08;17.17;;;7.17;;
6015;SDS011;3036;49.960;8.454;2022-11-20T09:29:35;12.50;;;6.23;;
6015;SDS011;3036;49.960;8.454;2022-11-20T09:32:04;16.90;;;8.30;;
6015;SDS011;3036;49.960;8.454;2022-11-20T09:34:31;13.77;;;7.43;;
6015;SDS011;3036;49.960;8.454;2022-11-20T09:36:58;15.40;;;7.30;;
6015;SDS011;3036;49.960;8.454;2022-11-20T09:39:25;14.60;;;7.63;;
6015;SDS011;3036;49.960;8.454;2022-11-20T09:44:40;12.63;;;6.27;;
6015;SDS011;3036;49.960;8.454;2022-11-20T09:47:15;16.73;;;8.50;;
6015;SDS011;3036;49.960;8.454;2022-11-20T09:49:50;17.43;;;7.87;;
6015;SDS011;3036;49.960;8.454;2022-11-20T09:52:20;21.97;;;8.70;;
6015;SDS011;3036;49.960;8.454;2022-11-20T09:54:49;12.63;;;6.90;;
6015;SDS011;3036;49.960;8.454;2022-11-20T09:57:18;12.40;;;6.37;;
6015;SDS011;3036;49.960;8.454;2022-11-20T09:59:48;16.13;;;7.07;;
6015;SDS011;3036;49.960;8.454;2022-11-20T10:02:25;13.97;;;6.33;;
6015;SDS011;3036;49.960;8.454;2022-11-20T10:04:55;14.23;;;7.13;;
6015;SDS011;3036;49.960;8.454;2022-11-20T10:07:24;13.07;;;6.70;;
6015;SDS011;3036;49.960;8.454;2022-11-20T10:09:54;10.03;;;6.07;;
6015;SDS011;3036;49.960;8.454;2022-11-20T10:12:24;15.40;;;7.57;;
6015;SDS011;3036;49.960;8.454;2022-11-20T10:14:57;16.30;;;7.23;;
6015;SDS011;3036;49.960;8.454;2022-11-20T10:17:30;13.93;;;6.33;;
6015;SDS011;3036;49.960;8.454;2022-11-20T10:20:05;11.90;;;6.30;;
6015;SDS011;3036;49.960;8.454;2022-11-20T10:22:42;13.53;;;6.07;;
6015;SDS011;3036;49.960;8.454;2022-11-20T10:25:13;15.87;;;7.17;;
6015;SDS011;3036;49.960;8.454;2022-11-20T10:30:22;13.90;;;7.07;;
6015;SDS011;3036;49.960;8.454;2022-11-20T10:32:52;11.40;;;6.90;;
6015;SDS011;3036;49.960;8.454;2022-11-20T10:35:22;13.83;;;7.03;;
6015;SDS011;3036;49.960;8.454;2022-11-20T10:37:51;14.00;;;7.47;;
6015;SDS011;3036;49.960;8.454;2022-11-20T10:40:22;12.13;;;6.30;;
6015;SDS011;3036;49.960;8.454;2022-11-20T10:42:51;20.97;;;7.93;;
6015;SDS011;3036;49.960;8.454;2022-11-20T10:45:27;14.83;;;5.77;;
6015;SDS011;3036;49.960;8.454;2022-11-20T10:48:12;13.30;;;7.40;;
6015;SDS011;3036;49.960;8.454;2022-11-20T10:50:44;13.53;;;6.77;;
6015;SDS011;3036;49.960;8.454;2022-11-20T10:53:16;18.20;;;7.70;;
6015;SDS011;3036;49.960;8.454;2022-11-20T10:55:47;21.60;;;7.17;;
6015;SDS011;3036;49.960;8.454;2022-11-20T10:58:19;15.17;;;6.70;;
6015;SDS011;3036;49.960;8.454;2022-11-20T11:00:47;14.53;;;7.53;;
6015;SDS011;3036;49.960;8.454;2022-11-20T11:03:20;14.87;;;7.40;;
6015;SDS011;3036;49.960;8.454;2022-11-20T11:05:50;16.63;;;7.67;;
6015;SDS011;3036;49.960;8.454;2022-11-20T11:08:18;10.40;;;6.17;;
6015;SDS011;3036;49.960;8.454;2022-11-20T11:10:46;14.60;;;7.60;;
6015;SDS011;3036;49.960;8.454;2022-11-20T11:13:19;14.83;;;7.20;;
6015;SDS011;3036;49.960;8.454;2022-11-20T11:15:46;17.47;;;7.90;;
6015;SDS011;3036;49.960;8.454;2022-11-20T11:18:23;18.63;;;9.10;;
6015;SDS011;3036;49.960;8.454;2022-11-20T11:20:51;17.27;;;8.10;;
6015;SDS011;3036;49.960;8.454;2022-11-20T11:23:24;20.53;;;9.60;;
6015;SDS011;3036;49.960;8.454;2022-11-20T11:25:56;20.13;;;9.13;;
6015;SDS011;3036;49.960;8.454;2022-11-20T11:28:24;18.47;;;7.23;;
6015;SDS011;3036;49.960;8.454;2022-11-20T11:30:53;16.30;;;8.13;;
6015;SDS011;3036;49.960;8.454;2022-11-20T11:33:21;15.03;;;7.90;;
6015;SDS011;3036;49.960;8.454;2022-11-20T11:35:50;26.47;;;11.60;;
6015;SDS011;3036;49.960;8.454;2022-11-20T11:38:19;23.73;;;10.23;;
6015;SDS011;3036;49.960;8.454;2022-11-20T11:40:48;22.87;;;10.57;;
6015;SDS011;3036;49.960;8.454;2022-11-20T11:43:19;15.00;;;7.43;;
6015;SDS011;3036;49.960;8.454;2022-11-20T11:46:05;13.93;;;7.23;;
6015;SDS011;3036;49.960;8.454;2022-11-20T11:48:36;16.50;;;8.23;;
6015;SDS011;3036;49.960;8.454;2022-11-20T11:51:07;12.27;;;6.07;;
6015;SDS011;3036;49.960;8.454;2022-11-20T11:53:35;8.93;;;6.60;;
6015;SDS011;3036;49.960;8.454;2022-11-20T11:56:08;12.53;;;6.73;;
6015;SDS011;3036;49.960;8.454;2022-11-20T11:58:40;13.87;;;6.93;;
6015;SDS011;3036;49.960;8.454;2022-11-20T12:01:12;14.17;;;7.57;;
6015;SDS011;3036;49.960;8.454;2022-11-20T12:03:46;10.80;;;6.27;;
6015;SDS011;3036;49.960;8.454;2022-11-20T12:09:03;10.73;;;6.23;;
6015;SDS011;3036;49.960;8.454;2022-11-20T12:11:31;11.33;;;6.23;;
6015;SDS011;3036;49.960;8.454;2022-11-20T12:14:00;11.43;;;6.47;;
6015;SDS011;3036;49.960;8.454;2022-11-20T12:16:30;11.03;;;6.13;;
6015;SDS011;3036;49.960;8.454;2022-11-20T12:19:00;10.37;;;5.57;;
6015;SDS011;3036;49.960;8.454;2022-11-20T12:21:28;11.17;;;6.30;;
6015;SDS011;3036;49.960;8.454;2022-11-20T12:24:05;12.47;;;6.00;;
6015;SDS011;3036;49.960;8.454;2022-11-20T12:26:39;13.53;;;7.00;;
6015;SDS011;3036;49.960;8.454;2022-11-20T12:29:09;14.23;;;7.30;;
6015;SDS011;3036;49.960;8.454;2022-11-20T12:31:43;11.47;;;6.63;;
6015;SDS011;3036;49.960;8.454;2022-11-20T12:34:18;9.77;;;5.40;;
6015;SDS011;3036;49.960;8.454;2022-11-20T12:36:51;9.07;;;5.60;;
6015;SDS011;3036;49.960;8.454;2022-11-20T12:45:28;6.00;;;4.07;;
6015;SDS011;3036;49.960;8.454;2022-11-20T12:48:04;7.37;;;4.57;;
6015;SDS011;3036;49.960;8.454;2022-11-20T12:50:37;8.20;;;4.80;;
6015;SDS011;3036;49.960;8.454;2022-11-20T12:53:07;7.70;;;4.93;;
6015;SDS011;3036;49.960;8.454;2022-11-20T12:55:42;7.80;;;5.07;;
6015;SDS011;3036;49.960;8.454;2022-11-20T12:58:12;5.80;;;4.30;;
6015;SDS011;3036;49.960;8.454;2022-11-20T13:00:50;8.07;;;5.23;;
6015;SDS011;3036;49.960;8.454;2022-11-20T13:03:26;8.17;;;4.10;;
6015;SDS011;3036;49.960;8.454;2022-11-20T13:05:57;6.23;;;3.97;;
6015;SDS011;3036;49.960;8.454;2022-11-20T13:08:27;11.40;;;4.87;;
6015;SDS011;3036;49.960;8.454;2022-11-20T13:10:56;6.50;;;3.80;;
6015;SDS011;3036;49.960;8.454;2022-11-20T13:13:29;5.20;;;3.90;;
6015;SDS011;3036;49.960;8.454;2022-11-20T13:16:00;6.07;;;4.20;;
6015;SDS011;3036;49.960;8.454;2022-11-20T13:18:29;5.27;;;4.27;;
6015;SDS011;3036;49.960;8.454;2022-11-20T13:21:00;6.37;;;3.80;;
6015;SDS011;3036;49.960;8.454;2022-11-20T13:23:27;8.47;;;3.80;;
6015;SDS011;3036;49.960;8.454;2022-11-20T13:26:05;7.50;;;4.47;;
6015;SDS011;3036;49.960;8.454;2022-11-20T13:28:32;8.07;;;4.20;;
6015;SDS011;3036;49.960;8.454;2022-11-20T13:31:01;5.10;;;4.27;;
6015;SDS011;3036;49.960;8.454;2022-11-20T13:33:29;7.73;;;4.87;;
6015;SDS011;3036;49.960;8.454;2022-11-20T13:35:58;8.63;;;4.90;;
6015;SDS011;3036;49.960;8.454;2022-11-20T13:38:25;7.83;;;4.53;;
6015;SDS011;3036;49.960;8.454;2022-11-20T13:40:53;9.40;;;4.97;;
6015;SDS011;3036;49.960;8.454;2022-11-20T13:43:28;7.47;;;4.47;;
6015;SDS011;3036;49.960;8.454;2022-11-20T13:45:56;5.50;;;4.20;;
6015;SDS011;3036;49.960;8.454;2022-11-20T13:48:26;10.50;;;4.87;;
6015;SDS011;3036;49.960;8.454;2022-11-20T13:51:02;7.57;;;5.10;;
6015;SDS011;3036;49.960;8.454;2022-11-20T13:53:33;7.40;;;5.20;;
6015;SDS011;3036;49.960;8.454;2022-11-20T13:56:04;8.17;;;4.53;;
6015;SDS011;3036;49.960;8.454;2022-11-20T13:58:40;10.07;;;5.03;;
6015;SDS011;3036;49.960;8.454;2022-11-20T14:01:14;8.17;;;4.90;;
6015;SDS011;3036;49.960;8.454;2022-11-20T14:03:43;6.00;;;4.37;;
6015;SDS011;3036;49.960;8.454;2022-11-20T14:06:11;7.33;;;5.03;;
6015;SDS011;3036;49.960;8.454;2022-11-20T14:08:41;7.57;;;5.30;;
6015;SDS011;3036;49.960;8.454;2022-11-20T14:11:14;9.43;;;5.33;;
6015;SDS011;3036;49.960;8.454;2022-11-20T14:13:50;7.63;;;5.63;;
6015;SDS011;3036;49.960;8.454;2022-11-20T14:16:19;10.70;;;5.57;;
6015;SDS011;3036;49.960;8.454;2022-11-20T14:18:47;8.20;;;4.90;;
6015;SDS011;3036;49.960;8.454;2022-11-20T14:21:21;14.77;;;6.07;;
6015;SDS011;3036;49.960;8.454;2022-11-20T14:23:48;13.13;;;6.17;;
6015;SDS011;3036;49.960;8.454;2022-11-20T14:26:16;9.03;;;5.27;;
6015;SDS011;3036;49.960;8.454;2022-11-20T14:28:47;9.40;;;5.47;;
6015;SDS011;3036;49.960;8.454;2022-11-20T14:31:17;7.67;;;5.50;;
6015;SDS011;3036;49.960;8.454;2022-11-20T14:33:45;10.43;;;6.03;;
6015;SDS011;3036;49.960;8.454;2022-11-20T14:36:17;8.73;;;5.03;;
6015;SDS011;3036;49.960;8.454;2022-11-20T14:38:45;10.97;;;5.70;;
6015;SDS011;3036;49.960;8.454;2022-11-20T14:41:16;9.10;;;5.40;;
6015;SDS011;3036;49.960;8.454;2022-11-20T14:43:45;11.37;;;6.17;;
6015;SDS011;3036;49.960;8.454;2022-11-20T14:46:12;10.37;;;5.33;;
6015;SDS011;3036;49.960;8.454;2022-11-20T14:48:40;12.20;;;5.80;;
6015;SDS011;3036;49.960;8.454;2022-11-20T14:51:08;10.53;;;5.77;;
6015;SDS011;3036;49.960;8.454;2022-11-20T14:53:37;10.00;;;5.10;;
6015;SDS011;3036;49.960;8.454;2022-11-20T14:56:04;8.47;;;5.37;;
6015;SDS011;3036;49.960;8.454;2022-11-20T14:58:32;9.90;;;5.73;;
6015;SDS011;3036;49.960;8.454;2022-11-20T15:01:00;11.17;;;5.60;;
6015;SDS011;3036;49.960;8.454;2022-11-20T15:03:31;10.70;;;5.47;;
6015;SDS011;3036;49.960;8.454;2022-11-20T15:06:00;10.60;;;5.53;;
6015;SDS011;3036;49.960;8.454;2022-11-20T15:11:14;7.73;;;4.90;;
6015;SDS011;3036;49.960;8.454;2022-11-20T15:13:43;8.87;;;5.50;;
6015;SDS011;3036;49.960;8.454;2022-11-20T15:16:13;8.37;;;5.07;;
6015;SDS011;3036;49.960;8.454;2022-11-20T15:18:41;10.83;;;5.10;;
6015;SDS011;3036;49.960;8.454;2022-11-20T15:21:10;10.60;;;5.13;;
6015;SDS011;3036;49.960;8.454;2022-11-20T15:23:37;8.67;;;5.23;;
6015;SDS011;3036;49.960;8.454;2022-11-20T15:26:05;6.63;;;4.83;;
6015;SDS011;3036;49.960;8.454;2022-11-20T15:28:34;7.47;;;4.80;;
6015;SDS011;3036;49.960;8.454;2022-11-20T15:31:02;11.53;;;6.00;;
6015;SDS011;3036;49.960;8.454;2022-11-20T15:33:30;9.13;;;4.37;;
6015;SDS011;3036;49.960;8.454;2022-11-20T15:35:57;10.30;;;5.00;;